Terminal Aerodrome Forecast
Issued by NWS

Home | Current Version | Previous Version | Text Only | Print | Product List | Glossary On
Versions: 1 2 3 4 5 6 7 8 9 10 11 12 13 14 15 16 17 18 19 20 21 22 23 24
000
FTUS41 KBTV 030200 AAA
TAFMPV
TAF AMD
KMPV 030241Z 0303/0324 32010KT 2SM RA BR VCTS BKN006 OVC030CB
      TEMPO 0303/0304 5SM -RA BR SCT006 OVC020
     FM030400 31008KT 5SM -RA BR SCT006 OVC020
     FM030600 VRB03KT 6SM BR BKN030
     FM030800 VRB03KT 3SM BR BKN010
     FM031200 29009KT P6SM BKN050
     FM031400 30010G16KT P6SM SCT050=

USA.gov is the U.S. government's official web portal to all federal, state and local government web resources and services.